South Hermitage, Pennsylvania
Current Conditions -  °F | °C
As of 2:15 AM on Thursday 18 Dec 2014 (Local Time) from KMQS Reporting Station
Scattered Clouds Scattered Clouds  
Wind Chill: 24°   Ceiling: Unl
Heat Index: 36°   Visibility: 10mi
Dew Point: 23°   Wind: 23mph
Humidity: 60%   Direction: 310°NW
Pressure: 29.99"   Gusts: 31mph
Location:  40.1227°N, 75.966°W
Report Text: KMQS 180715Z AUTO 31020G27KT 10SM SCT045 02/M05 A2999 RMK AO2
Loading
Personal Weather Stations






























Interactive Weather Map New forecast layout! Learn more

10-Day Weather Forecast

Advertisements
Track Severe Weather on mobile